sensor_id;sensor_type;location;lat;lon;timestamp;temperature;humidity
53498;DHT22;39382;47.168;16.008;2023-06-10T00:01:38;15.40;99.90
53498;DHT22;39382;47.168;16.008;2023-06-10T00:04:03;15.40;99.90
53498;DHT22;39382;47.168;16.008;2023-06-10T00:06:30;15.40;99.90
53498;DHT22;39382;47.168;16.008;2023-06-10T00:09:05;15.40;99.90
53498;DHT22;39382;47.168;16.008;2023-06-10T00:11:33;15.40;99.90
53498;DHT22;39382;47.168;16.008;2023-06-10T00:13:59;15.40;99.90
53498;DHT22;39382;47.168;16.008;2023-06-10T00:16:25;15.40;99.90
53498;DHT22;39382;47.168;16.008;2023-06-10T00:18:51;15.50;99.90
53498;DHT22;39382;47.168;16.008;2023-06-10T00:21:17;15.40;99.90
53498;DHT22;39382;47.168;16.008;2023-06-10T00:23:44;15.30;99.90
53498;DHT22;39382;47.168;16.008;2023-06-10T00:26:10;15.20;99.90
53498;DHT22;39382;47.168;16.008;2023-06-10T00:28:35;15.30;99.90
53498;DHT22;39382;47.168;16.008;2023-06-10T00:31:01;15.20;99.90
53498;DHT22;39382;47.168;16.008;2023-06-10T00:33:27;15.30;99.90
53498;DHT22;39382;47.168;16.008;2023-06-10T00:35:53;15.30;99.90
53498;DHT22;39382;47.168;16.008;2023-06-10T00:38:19;15.40;99.90
53498;DHT22;39382;47.168;16.008;2023-06-10T00:40:44;15.40;99.90
53498;DHT22;39382;47.168;16.008;2023-06-10T00:43:10;15.40;99.90
53498;DHT22;39382;47.168;16.008;2023-06-10T00:45:36;15.50;99.90
53498;DHT22;39382;47.168;16.008;2023-06-10T00:48:02;15.50;99.90
53498;DHT22;39382;47.168;16.008;2023-06-10T00:50:29;15.50;99.90
53498;DHT22;39382;47.168;16.008;2023-06-10T00:52:56;15.50;99.90
53498;DHT22;39382;47.168;16.008;2023-06-10T00:55:23;15.40;99.90
53498;DHT22;39382;47.168;16.008;2023-06-10T00:57:50;15.40;99.90
53498;DHT22;39382;47.168;16.008;2023-06-10T01:00:17;15.30;99.90
53498;DHT22;39382;47.168;16.008;2023-06-10T01:02:42;15.30;99.90
53498;DHT22;39382;47.168;16.008;2023-06-10T01:05:09;15.30;99.90
53498;DHT22;39382;47.168;16.008;2023-06-10T01:07:45;15.40;99.90
53498;DHT22;39382;47.168;16.008;2023-06-10T01:10:24;15.30;99.90
53498;DHT22;39382;47.168;16.008;2023-06-10T01:13:00;15.30;99.90
53498;DHT22;39382;47.168;16.008;2023-06-10T01:15:33;15.20;99.90
53498;DHT22;39382;47.168;16.008;2023-06-10T01:18:04;15.20;99.90
53498;DHT22;39382;47.168;16.008;2023-06-10T01:20:34;15.20;99.90
53498;DHT22;39382;47.168;16.008;2023-06-10T01:23:02;15.10;99.90
53498;DHT22;39382;47.168;16.008;2023-06-10T01:25:29;15.10;99.90
53498;DHT22;39382;47.168;16.008;2023-06-10T01:28:41;15.00;99.90
53498;DHT22;39382;47.168;16.008;2023-06-10T01:33:14;15.00;99.90
53498;DHT22;39382;47.168;16.008;2023-06-10T01:35:43;15.00;99.90
53498;DHT22;39382;47.168;16.008;2023-06-10T01:38:12;15.10;99.90
53498;DHT22;39382;47.168;16.008;2023-06-10T01:40:40;15.10;99.90
53498;DHT22;39382;47.168;16.008;2023-06-10T01:43:06;15.20;99.90
53498;DHT22;39382;47.168;16.008;2023-06-10T01:45:32;15.20;99.90
53498;DHT22;39382;47.168;16.008;2023-06-10T01:47:57;15.20;99.90
53498;DHT22;39382;47.168;16.008;2023-06-10T01:50:23;15.20;99.90
53498;DHT22;39382;47.168;16.008;2023-06-10T01:52:48;15.20;99.90
53498;DHT22;39382;47.168;16.008;2023-06-10T01:55:14;15.30;99.90
53498;DHT22;39382;47.168;16.008;2023-06-10T01:57:40;15.30;99.90
53498;DHT22;39382;47.168;16.008;2023-06-10T02:00:06;15.40;99.90
53498;DHT22;39382;47.168;16.008;2023-06-10T02:02:33;15.40;99.90
53498;DHT22;39382;47.168;16.008;2023-06-10T02:04:58;15.40;99.90
53498;DHT22;39382;47.168;16.008;2023-06-10T02:07:24;15.60;99.90
53498;DHT22;39382;47.168;16.008;2023-06-10T02:09:50;15.60;99.90
53498;DHT22;39382;47.168;16.008;2023-06-10T02:12:15;15.50;99.90
53498;DHT22;39382;47.168;16.008;2023-06-10T02:14:41;16.00;99.90
53498;DHT22;39382;47.168;16.008;2023-06-10T02:17:06;15.60;99.90
53498;DHT22;39382;47.168;16.008;2023-06-10T02:19:33;15.50;99.90
53498;DHT22;39382;47.168;16.008;2023-06-10T02:22:02;15.50;99.90
53498;DHT22;39382;47.168;16.008;2023-06-10T02:24:27;15.50;99.90
53498;DHT22;39382;47.168;16.008;2023-06-10T02:26:53;15.60;99.90
53498;DHT22;39382;47.168;16.008;2023-06-10T02:29:18;15.50;99.90
53498;DHT22;39382;47.168;16.008;2023-06-10T02:31:45;15.50;99.90
53498;DHT22;39382;47.168;16.008;2023-06-10T02:34:11;15.40;99.90
53498;DHT22;39382;47.168;16.008;2023-06-10T02:36:36;15.50;99.90
53498;DHT22;39382;47.168;16.008;2023-06-10T02:39:03;15.50;99.90
53498;DHT22;39382;47.168;16.008;2023-06-10T02:41:29;15.50;99.90
53498;DHT22;39382;47.168;16.008;2023-06-10T02:43:55;15.50;99.90
53498;DHT22;39382;47.168;16.008;2023-06-10T02:46:21;15.50;99.90
53498;DHT22;39382;47.168;16.008;2023-06-10T02:48:46;15.50;99.90
53498;DHT22;39382;47.168;16.008;2023-06-10T02:51:12;15.40;99.90
53498;DHT22;39382;47.168;16.008;2023-06-10T02:53:38;15.40;99.90
53498;DHT22;39382;47.168;16.008;2023-06-10T02:56:04;15.40;99.90
53498;DHT22;39382;47.168;16.008;2023-06-10T02:58:29;15.30;99.90
53498;DHT22;39382;47.168;16.008;2023-06-10T03:00:55;15.40;99.90
53498;DHT22;39382;47.168;16.008;2023-06-10T03:03:21;15.40;99.90
53498;DHT22;39382;47.168;16.008;2023-06-10T03:05:48;15.30;99.90
53498;DHT22;39382;47.168;16.008;2023-06-10T03:08:14;15.40;99.90
53498;DHT22;39382;47.168;16.008;2023-06-10T03:10:39;15.30;99.90
53498;DHT22;39382;47.168;16.008;2023-06-10T03:13:05;15.40;99.90
53498;DHT22;39382;47.168;16.008;2023-06-10T03:15:31;15.40;99.90
53498;DHT22;39382;47.168;16.008;2023-06-10T03:18:01;15.40;99.90
53498;DHT22;39382;47.168;16.008;2023-06-10T03:20:27;15.40;99.90
53498;DHT22;39382;47.168;16.008;2023-06-10T03:22:54;15.30;99.90
53498;DHT22;39382;47.168;16.008;2023-06-10T03:25:19;15.30;99.90
53498;DHT22;39382;47.168;16.008;2023-06-10T03:27:46;15.40;99.90
53498;DHT22;39382;47.168;16.008;2023-06-10T03:30:13;15.40;99.90
53498;DHT22;39382;47.168;16.008;2023-06-10T03:32:39;15.30;99.90
53498;DHT22;39382;47.168;16.008;2023-06-10T03:35:06;15.40;99.90
53498;DHT22;39382;47.168;16.008;2023-06-10T03:37:32;15.40;99.90
53498;DHT22;39382;47.168;16.008;2023-06-10T03:39:58;15.40;99.90
53498;DHT22;39382;47.168;16.008;2023-06-10T03:42:24;15.40;99.90
53498;DHT22;39382;47.168;16.008;2023-06-10T03:44:50;15.50;99.90
53498;DHT22;39382;47.168;16.008;2023-06-10T03:47:16;15.60;99.90
53498;DHT22;39382;47.168;16.008;2023-06-10T03:49:41;15.60;99.90
53498;DHT22;39382;47.168;16.008;2023-06-10T03:52:07;15.50;99.90
53498;DHT22;39382;47.168;16.008;2023-06-10T03:54:33;15.60;99.90
53498;DHT22;39382;47.168;16.008;2023-06-10T03:57:00;15.70;99.90
53498;DHT22;39382;47.168;16.008;2023-06-10T03:59:26;15.70;99.90
53498;DHT22;39382;47.168;16.008;2023-06-10T04:01:52;15.80;99.90
53498;DHT22;39382;47.168;16.008;2023-06-10T04:04:17;15.90;99.90
53498;DHT22;39382;47.168;16.008;2023-06-10T04:06:43;15.90;99.90
53498;DHT22;39382;47.168;16.008;2023-06-10T04:09:10;16.10;99.90
53498;DHT22;39382;47.168;16.008;2023-06-10T04:11:36;16.10;99.90
53498;DHT22;39382;47.168;16.008;2023-06-10T04:14:02;16.10;99.90
53498;DHT22;39382;47.168;16.008;2023-06-10T04:16:28;16.10;99.90
53498;DHT22;39382;47.168;16.008;2023-06-10T04:18:54;16.10;99.90
53498;DHT22;39382;47.168;16.008;2023-06-10T04:21:20;16.00;99.90
53498;DHT22;39382;47.168;16.008;2023-06-10T04:23:45;16.10;99.90
53498;DHT22;39382;47.168;16.008;2023-06-10T04:26:11;16.20;99.90
53498;DHT22;39382;47.168;16.008;2023-06-10T04:28:38;17.50;99.90
53498;DHT22;39382;47.168;16.008;2023-06-10T04:31:03;17.80;99.90
53498;DHT22;39382;47.168;16.008;2023-06-10T04:33:30;17.80;99.90
53498;DHT22;39382;47.168;16.008;2023-06-10T04:35:56;17.90;99.90
53498;DHT22;39382;47.168;16.008;2023-06-10T04:38:21;18.30;99.90
53498;DHT22;39382;47.168;16.008;2023-06-10T04:40:47;18.10;99.90
53498;DHT22;39382;47.168;16.008;2023-06-10T04:43:13;18.30;99.90
53498;DHT22;39382;47.168;16.008;2023-06-10T04:45:39;18.50;99.90
53498;DHT22;39382;47.168;16.008;2023-06-10T04:48:05;18.60;99.90
53498;DHT22;39382;47.168;16.008;2023-06-10T04:50:31;18.50;99.90
53498;DHT22;39382;47.168;16.008;2023-06-10T04:52:58;18.60;99.90
53498;DHT22;39382;47.168;16.008;2023-06-10T04:55:24;18.70;99.90
53498;DHT22;39382;47.168;16.008;2023-06-10T04:57:50;18.70;99.90
53498;DHT22;39382;47.168;16.008;2023-06-10T05:00:17;18.80;99.90
53498;DHT22;39382;47.168;16.008;2023-06-10T05:02:43;18.70;99.90
53498;DHT22;39382;47.168;16.008;2023-06-10T05:05:08;18.70;99.90
53498;DHT22;39382;47.168;16.008;2023-06-10T05:07:34;18.70;99.90
53498;DHT22;39382;47.168;16.008;2023-06-10T05:10:00;18.90;99.90
53498;DHT22;39382;47.168;16.008;2023-06-10T05:12:26;18.90;99.90
53498;DHT22;39382;47.168;16.008;2023-06-10T05:14:51;19.00;99.90
53498;DHT22;39382;47.168;16.008;2023-06-10T05:17:17;19.00;99.90
53498;DHT22;39382;47.168;16.008;2023-06-10T05:19:43;19.10;99.90
53498;DHT22;39382;47.168;16.008;2023-06-10T05:22:09;19.10;99.90
53498;DHT22;39382;47.168;16.008;2023-06-10T05:24:35;19.20;99.90
53498;DHT22;39382;47.168;16.008;2023-06-10T05:27:01;19.30;99.90
53498;DHT22;39382;47.168;16.008;2023-06-10T05:29:28;19.30;99.90
53498;DHT22;39382;47.168;16.008;2023-06-10T05:31:53;19.40;99.90
53498;DHT22;39382;47.168;16.008;2023-06-10T05:34:21;19.50;99.90
53498;DHT22;39382;47.168;16.008;2023-06-10T05:36:47;19.60;99.90
53498;DHT22;39382;47.168;16.008;2023-06-10T05:39:13;19.60;99.90
53498;DHT22;39382;47.168;16.008;2023-06-10T05:41:38;19.60;99.90
53498;DHT22;39382;47.168;16.008;2023-06-10T05:44:04;19.60;99.90
53498;DHT22;39382;47.168;16.008;2023-06-10T05:46:30;19.70;99.90
53498;DHT22;39382;47.168;16.008;2023-06-10T05:48:55;19.90;99.90
53498;DHT22;39382;47.168;16.008;2023-06-10T05:51:21;19.90;99.90
53498;DHT22;39382;47.168;16.008;2023-06-10T05:53:46;20.00;99.90
53498;DHT22;39382;47.168;16.008;2023-06-10T05:56:14;20.00;99.90
53498;DHT22;39382;47.168;16.008;2023-06-10T05:58:39;20.00;99.90
53498;DHT22;39382;47.168;16.008;2023-06-10T06:01:05;20.30;99.90
53498;DHT22;39382;47.168;16.008;2023-06-10T06:03:31;20.30;99.90
53498;DHT22;39382;47.168;16.008;2023-06-10T06:05:56;20.30;99.90
53498;DHT22;39382;47.168;16.008;2023-06-10T06:08:22;20.30;99.90
53498;DHT22;39382;47.168;16.008;2023-06-10T06:10:47;20.30;99.90
53498;DHT22;39382;47.168;16.008;2023-06-10T06:13:13;20.30;99.90
53498;DHT22;39382;47.168;16.008;2023-06-10T06:15:39;20.20;99.90
53498;DHT22;39382;47.168;16.008;2023-06-10T06:18:05;20.30;99.90
53498;DHT22;39382;47.168;16.008;2023-06-10T06:20:30;20.30;99.90
53498;DHT22;39382;47.168;16.008;2023-06-10T06:22:56;20.30;99.90
53498;DHT22;39382;47.168;16.008;2023-06-10T06:25:22;20.40;99.90
53498;DHT22;39382;47.168;16.008;2023-06-10T06:27:48;20.50;99.90
53498;DHT22;39382;47.168;16.008;2023-06-10T06:30:14;20.60;99.90
53498;DHT22;39382;47.168;16.008;2023-06-10T06:32:39;20.60;99.90
53498;DHT22;39382;47.168;16.008;2023-06-10T06:35:05;20.70;99.90
53498;DHT22;39382;47.168;16.008;2023-06-10T06:37:33;21.10;99.90
53498;DHT22;39382;47.168;16.008;2023-06-10T06:39:59;21.20;99.90
53498;DHT22;39382;47.168;16.008;2023-06-10T06:42:25;21.40;99.90
53498;DHT22;39382;47.168;16.008;2023-06-10T06:44:50;21.60;99.90
53498;DHT22;39382;47.168;16.008;2023-06-10T06:47:16;21.50;99.90
53498;DHT22;39382;47.168;16.008;2023-06-10T06:49:48;21.50;99.90
53498;DHT22;39382;47.168;16.008;2023-06-10T06:52:15;21.40;99.90
53498;DHT22;39382;47.168;16.008;2023-06-10T06:54:41;21.30;99.90
53498;DHT22;39382;47.168;16.008;2023-06-10T06:57:07;21.30;99.90
53498;DHT22;39382;47.168;16.008;2023-06-10T06:59:33;21.50;99.90
53498;DHT22;39382;47.168;16.008;2023-06-10T07:01:58;21.80;99.90
53498;DHT22;39382;47.168;16.008;2023-06-10T07:04:24;22.10;99.60
53498;DHT22;39382;47.168;16.008;2023-06-10T07:06:50;22.20;99.00
53498;DHT22;39382;47.168;16.008;2023-06-10T07:09:16;22.50;98.50
53498;DHT22;39382;47.168;16.008;2023-06-10T07:11:41;22.70;98.30
53498;DHT22;39382;47.168;16.008;2023-06-10T07:14:07;22.80;96.10
53498;DHT22;39382;47.168;16.008;2023-06-10T07:16:33;23.00;96.50
53498;DHT22;39382;47.168;16.008;2023-06-10T07:18:59;23.10;94.90
53498;DHT22;39382;47.168;16.008;2023-06-10T07:21:25;23.10;94.40
53498;DHT22;39382;47.168;16.008;2023-06-10T07:23:50;23.00;93.90
53498;DHT22;39382;47.168;16.008;2023-06-10T07:26:21;23.20;95.60
53498;DHT22;39382;47.168;16.008;2023-06-10T07:28:47;23.20;95.60
53498;DHT22;39382;47.168;16.008;2023-06-10T07:31:12;23.50;95.40
53498;DHT22;39382;47.168;16.008;2023-06-10T07:33:38;23.70;94.50
53498;DHT22;39382;47.168;16.008;2023-06-10T07:36:07;23.50;91.30
53498;DHT22;39382;47.168;16.008;2023-06-10T07:38:32;23.80;93.10
53498;DHT22;39382;47.168;16.008;2023-06-10T07:40:58;23.70;93.60
53498;DHT22;39382;47.168;16.008;2023-06-10T07:43:24;23.80;93.30
53498;DHT22;39382;47.168;16.008;2023-06-10T07:45:50;23.40;92.10
53498;DHT22;39382;47.168;16.008;2023-06-10T07:48:17;22.90;93.50
53498;DHT22;39382;47.168;16.008;2023-06-10T07:50:43;22.90;92.90
53498;DHT22;39382;47.168;16.008;2023-06-10T07:53:08;23.10;93.20
53498;DHT22;39382;47.168;16.008;2023-06-10T07:55:34;23.20;92.00
53498;DHT22;39382;47.168;16.008;2023-06-10T07:58:00;23.20;92.50
53498;DHT22;39382;47.168;16.008;2023-06-10T08:00:25;23.50;92.60
53498;DHT22;39382;47.168;16.008;2023-06-10T08:02:51;23.90;91.00
53498;DHT22;39382;47.168;16.008;2023-06-10T08:05:17;24.10;89.80
53498;DHT22;39382;47.168;16.008;2023-06-10T08:07:43;23.90;89.90
53498;DHT22;39382;47.168;16.008;2023-06-10T08:10:09;23.60;91.00
53498;DHT22;39382;47.168;16.008;2023-06-10T08:12:35;24.00;92.50
53498;DHT22;39382;47.168;16.008;2023-06-10T08:15:01;24.40;91.60
53498;DHT22;39382;47.168;16.008;2023-06-10T08:17:29;24.70;90.60
53498;DHT22;39382;47.168;16.008;2023-06-10T08:19:55;24.40;88.60
53498;DHT22;39382;47.168;16.008;2023-06-10T08:22:21;24.50;90.10
53498;DHT22;39382;47.168;16.008;2023-06-10T08:24:46;24.40;91.00
53498;DHT22;39382;47.168;16.008;2023-06-10T08:27:12;24.10;91.60
53498;DHT22;39382;47.168;16.008;2023-06-10T08:29:38;23.80;92.30
53498;DHT22;39382;47.168;16.008;2023-06-10T08:32:04;23.80;91.80
53498;DHT22;39382;47.168;16.008;2023-06-10T08:34:30;23.50;91.20
53498;DHT22;39382;47.168;16.008;2023-06-10T08:36:55;23.10;92.30
53498;DHT22;39382;47.168;16.008;2023-06-10T08:39:22;23.30;92.80
53498;DHT22;39382;47.168;16.008;2023-06-10T08:44:46;23.50;93.40
53498;DHT22;39382;47.168;16.008;2023-06-10T08:47:16;23.30;94.10
53498;DHT22;39382;47.168;16.008;2023-06-10T08:49:46;23.40;93.50
53498;DHT22;39382;47.168;16.008;2023-06-10T08:52:20;23.10;95.00
53498;DHT22;39382;47.168;16.008;2023-06-10T08:54:52;22.80;95.50
53498;DHT22;39382;47.168;16.008;2023-06-10T08:57:20;22.70;96.40
53498;DHT22;39382;47.168;16.008;2023-06-10T08:59:47;23.00;97.60
53498;DHT22;39382;47.168;16.008;2023-06-10T09:02:14;23.20;96.50
53498;DHT22;39382;47.168;16.008;2023-06-10T09:04:42;23.70;94.10
53498;DHT22;39382;47.168;16.008;2023-06-10T09:07:09;23.90;93.60
53498;DHT22;39382;47.168;16.008;2023-06-10T09:09:36;23.60;93.60
53498;DHT22;39382;47.168;16.008;2023-06-10T09:12:02;23.20;94.10
53498;DHT22;39382;47.168;16.008;2023-06-10T09:14:28;23.30;94.40
53498;DHT22;39382;47.168;16.008;2023-06-10T09:16:54;23.20;94.70
53498;DHT22;39382;47.168;16.008;2023-06-10T09:19:24;23.20;93.50
53498;DHT22;39382;47.168;16.008;2023-06-10T09:21:50;23.00;95.00
53498;DHT22;39382;47.168;16.008;2023-06-10T09:24:16;22.70;95.60
53498;DHT22;39382;47.168;16.008;2023-06-10T09:26:43;22.40;99.90
53498;DHT22;39382;47.168;16.008;2023-06-10T09:29:09;22.10;99.90
53498;DHT22;39382;47.168;16.008;2023-06-10T09:31:38;22.00;99.90
53498;DHT22;39382;47.168;16.008;2023-06-10T09:34:12;22.00;99.90
53498;DHT22;39382;47.168;16.008;2023-06-10T09:36:38;21.90;99.90
53498;DHT22;39382;47.168;16.008;2023-06-10T09:39:05;21.50;99.90
53498;DHT22;39382;47.168;16.008;2023-06-10T09:41:41;21.50;99.90
53498;DHT22;39382;47.168;16.008;2023-06-10T09:44:15;21.50;99.90
53498;DHT22;39382;47.168;16.008;2023-06-10T09:46:42;21.40;99.90
53498;DHT22;39382;47.168;16.008;2023-06-10T09:49:08;21.30;99.90
53498;DHT22;39382;47.168;16.008;2023-06-10T09:51:34;21.00;99.90
53498;DHT22;39382;47.168;16.008;2023-06-10T09:54:02;20.80;99.90
53498;DHT22;39382;47.168;16.008;2023-06-10T09:56:35;20.60;99.90
53498;DHT22;39382;47.168;16.008;2023-06-10T09:59:01;20.60;99.90
53498;DHT22;39382;47.168;16.008;2023-06-10T10:01:28;20.70;99.90
53498;DHT22;39382;47.168;16.008;2023-06-10T10:03:55;20.70;99.90
53498;DHT22;39382;47.168;16.008;2023-06-10T10:06:21;20.50;99.90
53498;DHT22;39382;47.168;16.008;2023-06-10T10:08:48;20.50;99.90
53498;DHT22;39382;47.168;16.008;2023-06-10T10:11:16;20.40;99.90
53498;DHT22;39382;47.168;16.008;2023-06-10T10:13:48;20.40;99.90
53498;DHT22;39382;47.168;16.008;2023-06-10T10:16:33;20.50;99.90
53498;DHT22;39382;47.168;16.008;2023-06-10T10:19:07;20.70;99.90
53498;DHT22;39382;47.168;16.008;2023-06-10T10:21:38;20.60;99.90
53498;DHT22;39382;47.168;16.008;2023-06-10T10:26:40;20.70;99.90
53498;DHT22;39382;47.168;16.008;2023-06-10T10:29:10;20.80;99.90
53498;DHT22;39382;47.168;16.008;2023-06-10T10:31:37;21.00;99.90
53498;DHT22;39382;47.168;16.008;2023-06-10T10:34:12;20.90;99.90
53498;DHT22;39382;47.168;16.008;2023-06-10T10:36:38;21.00;99.90
53498;DHT22;39382;47.168;16.008;2023-06-10T10:39:04;21.10;99.90
53498;DHT22;39382;47.168;16.008;2023-06-10T10:41:31;21.10;99.90
53498;DHT22;39382;47.168;16.008;2023-06-10T10:43:58;21.20;99.90
53498;DHT22;39382;47.168;16.008;2023-06-10T10:46:24;21.10;99.90
53498;DHT22;39382;47.168;16.008;2023-06-10T10:48:54;21.10;99.90
53498;DHT22;39382;47.168;16.008;2023-06-10T10:51:20;21.40;99.90
53498;DHT22;39382;47.168;16.008;2023-06-10T10:54:10;21.50;99.90
53498;DHT22;39382;47.168;16.008;2023-06-10T10:56:35;21.70;99.90
53498;DHT22;39382;47.168;16.008;2023-06-10T10:59:03;21.80;99.90
53498;DHT22;39382;47.168;16.008;2023-06-10T11:01:40;22.00;99.90
53498;DHT22;39382;47.168;16.008;2023-06-10T11:04:08;22.10;99.90
53498;DHT22;39382;47.168;16.008;2023-06-10T11:06:35;22.10;99.90
53498;DHT22;39382;47.168;16.008;2023-06-10T11:09:00;22.10;99.90
53498;DHT22;39382;47.168;16.008;2023-06-10T11:11:27;22.00;99.90
53498;DHT22;39382;47.168;16.008;2023-06-10T11:14:04;21.90;99.90
53498;DHT22;39382;47.168;16.008;2023-06-10T11:16:42;21.90;99.90
53498;DHT22;39382;47.168;16.008;2023-06-10T11:19:08;22.00;99.90
53498;DHT22;39382;47.168;16.008;2023-06-10T11:22:06;22.00;99.90
53498;DHT22;39382;47.168;16.008;2023-06-10T11:24:31;22.30;99.90
53498;DHT22;39382;47.168;16.008;2023-06-10T11:32:35;22.30;99.90
53498;DHT22;39382;47.168;16.008;2023-06-10T11:35:04;22.30;99.90
53498;DHT22;39382;47.168;16.008;2023-06-10T11:37:30;22.20;99.90
53498;DHT22;39382;47.168;16.008;2023-06-10T11:39:56;22.20;99.90
53498;DHT22;39382;47.168;16.008;2023-06-10T11:42:22;22.30;99.90
53498;DHT22;39382;47.168;16.008;2023-06-10T11:44:52;22.50;99.90
53498;DHT22;39382;47.168;16.008;2023-06-10T11:47:18;22.40;99.90
53498;DHT22;39382;47.168;16.008;2023-06-10T11:49:45;22.60;99.90
53498;DHT22;39382;47.168;16.008;2023-06-10T11:52:11;22.80;99.90
53498;DHT22;39382;47.168;16.008;2023-06-10T11:54:38;22.70;99.90
53498;DHT22;39382;47.168;16.008;2023-06-10T11:57:04;22.80;99.90
53498;DHT22;39382;47.168;16.008;2023-06-10T11:59:30;22.90;99.90
53498;DHT22;39382;47.168;16.008;2023-06-10T12:01:56;22.70;99.90
53498;DHT22;39382;47.168;16.008;2023-06-10T12:04:22;22.40;99.90
53498;DHT22;39382;47.168;16.008;2023-06-10T12:06:53;22.50;99.90
53498;DHT22;39382;47.168;16.008;2023-06-10T12:09:28;22.60;99.90
53498;DHT22;39382;47.168;16.008;2023-06-10T12:11:58;22.60;99.90
53498;DHT22;39382;47.168;16.008;2023-06-10T12:17:42;21.90;99.90
53498;DHT22;39382;47.168;16.008;2023-06-10T12:20:12;21.80;99.90
53498;DHT22;39382;47.168;16.008;2023-06-10T12:22:49;21.80;99.90
53498;DHT22;39382;47.168;16.008;2023-06-10T12:25:15;21.70;99.90
53498;DHT22;39382;47.168;16.008;2023-06-10T12:27:53;21.70;99.90
53498;DHT22;39382;47.168;16.008;2023-06-10T12:30:20;21.80;99.90
53498;DHT22;39382;47.168;16.008;2023-06-10T12:32:47;21.70;99.90
53498;DHT22;39382;47.168;16.008;2023-06-10T12:35:17;21.70;99.90
53498;DHT22;39382;47.168;16.008;2023-06-10T12:37:54;21.70;99.90
53498;DHT22;39382;47.168;16.008;2023-06-10T12:40:26;21.80;99.90
53498;DHT22;39382;47.168;16.008;2023-06-10T12:42:54;21.70;99.90
53498;DHT22;39382;47.168;16.008;2023-06-10T12:45:33;21.70;99.90
53498;DHT22;39382;47.168;16.008;2023-06-10T12:50:38;21.40;99.90
53498;DHT22;39382;47.168;16.008;2023-06-10T12:53:04;21.50;99.90
53498;DHT22;39382;47.168;16.008;2023-06-10T12:55:30;21.60;99.90
53498;DHT22;39382;47.168;16.008;2023-06-10T12:57:56;21.80;99.90
53498;DHT22;39382;47.168;16.008;2023-06-10T13:00:22;21.90;99.90
53498;DHT22;39382;47.168;16.008;2023-06-10T13:02:52;21.90;99.90
53498;DHT22;39382;47.168;16.008;2023-06-10T13:05:18;21.90;99.90
53498;DHT22;39382;47.168;16.008;2023-06-10T13:07:44;22.00;99.90
53498;DHT22;39382;47.168;16.008;2023-06-10T13:10:10;22.10;99.90
53498;DHT22;39382;47.168;16.008;2023-06-10T13:12:36;22.20;99.90
53498;DHT22;39382;47.168;16.008;2023-06-10T13:15:02;22.20;99.90
53498;DHT22;39382;47.168;16.008;2023-06-10T13:17:28;22.60;99.90
53498;DHT22;39382;47.168;16.008;2023-06-10T13:19:54;22.70;99.90
53498;DHT22;39382;47.168;16.008;2023-06-10T13:22:21;22.80;99.90
53498;DHT22;39382;47.168;16.008;2023-06-10T13:24:47;22.90;99.90
53498;DHT22;39382;47.168;16.008;2023-06-10T13:27:13;23.30;99.90
53498;DHT22;39382;47.168;16.008;2023-06-10T13:29:39;23.60;99.90
53498;DHT22;39382;47.168;16.008;2023-06-10T13:32:06;23.80;99.90
53498;DHT22;39382;47.168;16.008;2023-06-10T13:34:32;23.80;99.90
53498;DHT22;39382;47.168;16.008;2023-06-10T13:36:57;24.10;98.70
53498;DHT22;39382;47.168;16.008;2023-06-10T13:39:23;24.20;98.40
53498;DHT22;39382;47.168;16.008;2023-06-10T13:41:49;24.10;99.70
53498;DHT22;39382;47.168;16.008;2023-06-10T13:44:15;24.50;98.90
53498;DHT22;39382;47.168;16.008;2023-06-10T13:46:40;24.70;96.80
53498;DHT22;39382;47.168;16.008;2023-06-10T13:49:06;25.00;97.60
53498;DHT22;39382;47.168;16.008;2023-06-10T13:51:31;25.00;96.50
53498;DHT22;39382;47.168;16.008;2023-06-10T13:53:57;24.90;96.90
53498;DHT22;39382;47.168;16.008;2023-06-10T13:56:23;25.10;97.90
53498;DHT22;39382;47.168;16.008;2023-06-10T13:58:48;25.10;94.40
53498;DHT22;39382;47.168;16.008;2023-06-10T14:01:14;25.30;95.30
53498;DHT22;39382;47.168;16.008;2023-06-10T14:03:40;25.00;95.60
53498;DHT22;39382;47.168;16.008;2023-06-10T14:06:06;25.30;95.60
53498;DHT22;39382;47.168;16.008;2023-06-10T14:08:31;25.50;94.40
53498;DHT22;39382;47.168;16.008;2023-06-10T14:10:57;25.50;94.40
53498;DHT22;39382;47.168;16.008;2023-06-10T14:13:23;25.40;93.60
53498;DHT22;39382;47.168;16.008;2023-06-10T14:15:48;25.40;92.70
53498;DHT22;39382;47.168;16.008;2023-06-10T14:18:14;25.30;92.80
53498;DHT22;39382;47.168;16.008;2023-06-10T14:20:40;25.30;93.00
53498;DHT22;39382;47.168;16.008;2023-06-10T14:23:05;25.00;93.80
53498;DHT22;39382;47.168;16.008;2023-06-10T14:25:31;25.10;93.70
53498;DHT22;39382;47.168;16.008;2023-06-10T14:27:56;25.10;92.60
53498;DHT22;39382;47.168;16.008;2023-06-10T14:30:23;24.90;92.00
53498;DHT22;39382;47.168;16.008;2023-06-10T14:32:49;25.00;93.20
53498;DHT22;39382;47.168;16.008;2023-06-10T14:35:15;25.20;93.20
53498;DHT22;39382;47.168;16.008;2023-06-10T14:37:40;25.30;92.40
53498;DHT22;39382;47.168;16.008;2023-06-10T14:40:06;25.60;92.40
53498;DHT22;39382;47.168;16.008;2023-06-10T14:42:32;25.90;91.10
53498;DHT22;39382;47.168;16.008;2023-06-10T14:44:58;26.00;90.10
53498;DHT22;39382;47.168;16.008;2023-06-10T14:47:24;25.50;90.00
53498;DHT22;39382;47.168;16.008;2023-06-10T14:49:50;25.60;90.70
53498;DHT22;39382;47.168;16.008;2023-06-10T14:52:16;25.80;88.70
53498;DHT22;39382;47.168;16.008;2023-06-10T14:54:41;25.60;84.90
53498;DHT22;39382;47.168;16.008;2023-06-10T14:57:07;25.50;85.40
53498;DHT22;39382;47.168;16.008;2023-06-10T14:59:33;25.40;90.60
53498;DHT22;39382;47.168;16.008;2023-06-10T15:02:00;25.10;93.50
53498;DHT22;39382;47.168;16.008;2023-06-10T15:04:27;24.90;95.30
53498;DHT22;39382;47.168;16.008;2023-06-10T15:06:52;24.70;95.80
53498;DHT22;39382;47.168;16.008;2023-06-10T15:09:18;24.40;94.60
53498;DHT22;39382;47.168;16.008;2023-06-10T15:11:44;24.20;93.20
53498;DHT22;39382;47.168;16.008;2023-06-10T15:14:09;24.10;93.20
53498;DHT22;39382;47.168;16.008;2023-06-10T15:16:35;24.00;93.40
53498;DHT22;39382;47.168;16.008;2023-06-10T15:19:01;23.90;93.30
53498;DHT22;39382;47.168;16.008;2023-06-10T15:21:26;23.80;93.40
53498;DHT22;39382;47.168;16.008;2023-06-10T15:23:52;23.70;93.70
53498;DHT22;39382;47.168;16.008;2023-06-10T15:26:18;23.70;93.40
53498;DHT22;39382;47.168;16.008;2023-06-10T15:28:44;23.80;94.00
53498;DHT22;39382;47.168;16.008;2023-06-10T15:31:10;23.90;93.80
53498;DHT22;39382;47.168;16.008;2023-06-10T15:33:36;23.90;94.10